createdAt,value
2022-07-25T00:00:09.378Z,513.42
2022-07-25T00:02:35.931Z,504.50
2022-07-25T00:05:03.091Z,443.38
2022-07-25T00:07:29.577Z,492.10
2022-07-25T00:09:56.017Z,475.50
2022-07-25T00:12:22.935Z,498.55
2022-07-25T00:14:49.359Z,524.33
2022-07-25T00:17:15.704Z,525.45
2022-07-25T00:19:42.080Z,513.35
2022-07-25T00:22:08.395Z,492.60
2022-07-25T00:24:34.777Z,512.33
2022-07-25T00:27:02.752Z,533.25
2022-07-25T00:29:29.122Z,536.22
2022-07-25T00:31:55.440Z,527.15
2022-07-25T00:34:21.786Z,510.88
2022-07-25T00:36:48.064Z,545.70
2022-07-25T00:39:14.419Z,498.30
2022-07-25T00:41:40.795Z,525.67
2022-07-25T00:44:08.131Z,508.42
2022-07-25T00:46:37.903Z,530.00
2022-07-25T00:49:04.380Z,509.48
2022-07-25T00:51:30.771Z,551.55
2022-07-25T00:53:57.376Z,518.85
2022-07-25T00:56:24.590Z,539.35
2022-07-25T00:58:50.911Z,538.92
2022-07-25T01:01:17.370Z,538.15
2022-07-25T01:03:43.746Z,497.38
2022-07-25T01:06:10.138Z,538.17
2022-07-25T01:08:36.453Z,511.45
2022-07-25T01:11:03.027Z,511.40
2022-07-25T01:13:31.773Z,491.00
2022-07-25T01:15:58.215Z,482.75
2022-07-25T01:18:24.612Z,492.83
2022-07-25T01:20:50.991Z,486.85
2022-07-25T01:23:17.299Z,468.20
2022-07-25T01:25:43.863Z,480.83
2022-07-25T01:28:10.158Z,499.80
2022-07-25T01:30:36.524Z,476.70
2022-07-25T01:33:07.137Z,486.40
2022-07-25T01:35:33.857Z,434.10
2022-07-25T01:38:00.164Z,480.73
2022-07-25T01:40:26.576Z,529.17
2022-07-25T01:42:52.871Z,508.27
2022-07-25T01:45:19.176Z,517.88
2022-07-25T01:47:45.506Z,530.05
2022-07-25T01:50:11.838Z,532.53
2022-07-25T01:52:39.525Z,497.83
2022-07-25T01:55:06.221Z,496.35
2022-07-25T01:57:32.659Z,493.45
2022-07-25T01:59:59.291Z,488.30
2022-07-25T02:02:25.767Z,523.17
2022-07-25T02:04:52.225Z,516.35
2022-07-25T02:07:18.623Z,527.10
2022-07-25T02:09:44.927Z,461.40
2022-07-25T02:12:11.325Z,433.38
2022-07-25T02:14:37.643Z,450.52
2022-07-25T02:17:03.995Z,503.58
2022-07-25T02:19:30.412Z,515.80
2022-07-25T02:21:56.726Z,470.13
2022-07-25T02:24:23.118Z,490.63
2022-07-25T02:26:49.432Z,480.92
2022-07-25T02:29:15.766Z,503.67
2022-07-25T02:31:42.075Z,514.35
2022-07-25T02:34:08.750Z,455.75
2022-07-25T02:36:35.258Z,380.25
2022-07-25T02:39:01.751Z,469.10
2022-07-25T02:41:28.043Z,515.08
2022-07-25T02:43:54.368Z,472.40
2022-07-25T02:46:20.825Z,479.38
2022-07-25T02:48:47.211Z,493.90
2022-07-25T02:51:13.660Z,467.85
2022-07-25T02:53:56.723Z,468.17
2022-07-25T02:56:24.309Z,499.60
2022-07-25T02:58:50.955Z,471.92
2022-07-25T03:01:17.355Z,459.90
2022-07-25T03:03:43.798Z,513.70
2022-07-25T03:06:10.228Z,494.70
2022-07-25T03:08:36.628Z,484.25
2022-07-25T03:11:03.271Z,526.72
2022-07-25T03:13:29.616Z,504.98
2022-07-25T03:15:56.100Z,481.88
2022-07-25T03:18:22.397Z,482.50
2022-07-25T03:20:48.752Z,498.17
2022-07-25T03:23:15.058Z,515.20
2022-07-25T03:25:41.441Z,467.52
2022-07-25T03:28:07.796Z,494.50
2022-07-25T03:30:34.111Z,508.70
2022-07-25T03:33:00.403Z,398.63
2022-07-25T03:35:26.708Z,475.30
2022-07-25T03:37:53.322Z,467.45
2022-07-25T03:40:19.828Z,363.27
2022-07-25T03:42:46.205Z,448.90
2022-07-25T03:45:12.603Z,395.88
2022-07-25T03:47:38.934Z,381.88
2022-07-25T03:50:05.509Z,364.25
2022-07-25T03:52:31.952Z,393.60
2022-07-25T03:54:58.254Z,383.15
2022-07-25T03:57:24.567Z,450.60
2022-07-25T03:59:50.920Z,435.75
2022-07-25T04:02:17.327Z,398.55
2022-07-25T04:04:43.660Z,411.33
2022-07-25T04:07:10.112Z,497.48
2022-07-25T04:09:37.070Z,415.02
2022-07-25T04:12:03.519Z,342.45
2022-07-25T04:14:29.803Z,421.38
2022-07-25T04:16:56.173Z,419.10
2022-07-25T04:19:22.534Z,400.00
2022-07-25T04:21:48.909Z,408.83
2022-07-25T04:24:15.201Z,471.92
2022-07-25T04:26:41.541Z,460.30
2022-07-25T04:29:07.892Z,460.08
2022-07-25T04:31:34.265Z,418.85
2022-07-25T04:34:00.668Z,461.98
2022-07-25T04:36:26.987Z,452.38
2022-07-25T04:38:53.472Z,460.25
2022-07-25T04:41:19.764Z,507.40
2022-07-25T04:43:48.785Z,484.40
2022-07-25T04:46:19.990Z,502.80
2022-07-25T04:48:46.470Z,352.55
2022-07-25T04:51:14.492Z,448.90
2022-07-25T04:53:40.807Z,453.85
2022-07-25T04:56:07.213Z,455.45
2022-07-25T04:58:33.538Z,351.67
2022-07-25T05:00:59.946Z,476.60
2022-07-25T05:03:26.322Z,464.85
2022-07-25T05:05:52.719Z,391.08
2022-07-25T05:08:19.060Z,371.38
2022-07-25T05:10:45.355Z,449.08
2022-07-25T05:13:11.692Z,300.45
2022-07-25T05:15:39.452Z,296.42
2022-07-25T05:18:05.768Z,375.23
2022-07-25T05:20:32.063Z,430.38
2022-07-25T05:22:58.407Z,497.85
2022-07-25T05:25:25.395Z,422.17
2022-07-25T05:27:54.573Z,424.30
2022-07-25T05:30:21.164Z,416.67
2022-07-25T05:32:47.516Z,429.05
2022-07-25T05:35:15.543Z,351.92
2022-07-25T05:37:42.146Z,351.35
2022-07-25T05:40:08.673Z,403.58
2022-07-25T05:42:35.221Z,346.50
2022-07-25T05:45:01.912Z,390.08
2022-07-25T05:47:28.351Z,400.17
2022-07-25T05:49:54.912Z,376.13
2022-07-25T05:52:21.281Z,333.67
2022-07-25T05:54:47.608Z,393.15
2022-07-25T05:57:13.939Z,419.55
2022-07-25T05:59:40.318Z,341.08
2022-07-25T06:02:06.676Z,415.38
2022-07-25T06:04:33.374Z,326.00
2022-07-25T06:06:59.818Z,251.25
2022-07-25T06:09:26.127Z,326.90
2022-07-25T06:12:00.565Z,132.45
2022-07-25T06:16:54.133Z,212.05
2022-07-25T06:19:20.420Z,267.08
2022-07-25T06:21:46.757Z,300.33
2022-07-25T06:24:13.066Z,135.13
2022-07-25T06:26:39.447Z,241.95
2022-07-25T06:29:05.831Z,218.43
2022-07-25T06:31:32.267Z,231.07
2022-07-25T06:33:58.631Z,193.05
2022-07-25T06:36:32.248Z,253.25
2022-07-25T06:38:59.324Z,236.45
2022-07-25T06:41:25.616Z,223.35
2022-07-25T06:43:51.903Z,267.55
2022-07-25T06:46:18.288Z,250.70
2022-07-25T06:48:44.732Z,192.93
2022-07-25T06:51:11.095Z,186.50
2022-07-25T06:53:37.437Z,144.40
2022-07-25T06:56:03.904Z,254.05
2022-07-25T06:58:30.259Z,164.73
2022-07-25T07:00:56.689Z,134.07
2022-07-25T07:03:23.117Z,247.73
2022-07-25T07:05:49.562Z,259.73
2022-07-25T07:08:15.876Z,290.35
2022-07-25T07:10:42.664Z,156.40
2022-07-25T07:13:13.770Z,252.30
2022-07-25T07:15:43.697Z,216.70
2022-07-25T07:18:10.056Z,198.52
2022-07-25T07:20:36.390Z,124.78
2022-07-25T07:23:02.825Z,309.00
2022-07-25T07:25:30.497Z,190.80
2022-07-25T07:27:56.840Z,258.70
2022-07-25T07:30:25.979Z,197.50
2022-07-25T07:32:59.953Z,156.25
2022-07-25T07:35:27.462Z,239.18
2022-07-25T07:37:54.525Z,187.93
2022-07-25T07:40:21.807Z,248.80
2022-07-25T07:42:48.739Z,232.50
2022-07-25T07:45:22.799Z,126.55
2022-07-25T07:47:49.900Z,270.85
2022-07-25T07:50:16.940Z,103.00
2022-07-25T07:52:43.791Z,223.85
2022-07-25T07:55:29.433Z,202.27
2022-07-25T07:57:55.935Z,142.75
2022-07-25T08:00:23.019Z,121.82
2022-07-25T08:02:52.345Z,154.45
2022-07-25T08:05:25.755Z,209.80
2022-07-25T08:07:52.089Z,349.27
2022-07-25T08:10:20.024Z,68.55
2022-07-25T08:12:46.558Z,273.25
2022-07-25T08:15:12.893Z,96.85
2022-07-25T08:17:39.182Z,149.55
2022-07-25T08:20:27.863Z,172.75
2022-07-25T08:22:56.658Z,217.43
2022-07-25T08:25:23.344Z,276.92
2022-07-25T08:27:49.790Z,198.93
2022-07-25T08:30:16.974Z,290.17
2022-07-25T08:32:53.939Z,122.57
2022-07-25T08:35:21.079Z,189.52
2022-07-25T08:37:48.116Z,307.73
2022-07-25T08:40:15.387Z,300.80
2022-07-25T08:42:42.166Z,253.85
2022-07-25T08:45:09.655Z,214.00
2022-07-25T08:47:36.876Z,331.80
2022-07-25T08:50:04.927Z,286.00
2022-07-25T08:52:31.736Z,154.80
2022-07-25T08:54:58.391Z,312.05
2022-07-25T08:57:24.679Z,131.48
2022-07-25T08:59:51.058Z,268.45
2022-07-25T09:02:17.529Z,99.20
2022-07-25T09:04:43.977Z,218.23
2022-07-25T09:07:10.310Z,398.00
2022-07-25T09:09:38.480Z,335.27
2022-07-25T09:12:05.979Z,224.80
2022-07-25T09:14:40.377Z,343.52
2022-07-25T09:17:07.809Z,373.77
2022-07-25T09:19:55.824Z,237.88
2022-07-25T09:22:22.524Z,284.55
2022-07-25T09:24:48.994Z,379.35
2022-07-25T09:27:15.536Z,281.33
2022-07-25T09:29:44.934Z,249.70
2022-07-25T09:32:18.608Z,294.92
2022-07-25T09:34:46.195Z,389.17
2022-07-25T09:37:13.313Z,274.80
2022-07-25T09:39:46.103Z,303.67
2022-07-25T09:42:32.138Z,327.77
2022-07-25T09:45:01.676Z,273.58
2022-07-25T09:47:28.008Z,335.73
2022-07-25T09:49:54.420Z,313.25
2022-07-25T09:52:20.743Z,162.60
2022-07-25T09:54:47.037Z,275.13
2022-07-25T09:57:13.433Z,207.63
2022-07-25T09:59:39.811Z,81.88
2022-07-25T10:02:08.791Z,313.83
2022-07-25T10:04:43.242Z,294.70
2022-07-25T10:07:10.387Z,53.92
2022-07-25T10:09:48.387Z,307.17
2022-07-25T10:12:18.134Z,227.48
2022-07-25T10:15:02.716Z,150.20
2022-07-25T10:17:28.990Z,123.38
2022-07-25T10:19:58.726Z,72.95
2022-07-25T10:22:55.126Z,106.80
2022-07-25T10:25:21.991Z,38.95
2022-07-25T10:27:49.465Z,147.18
2022-07-25T10:30:20.361Z,273.98
2022-07-25T10:32:51.191Z,24.45
2022-07-25T10:35:17.589Z,165.60
2022-07-25T10:37:49.000Z,341.50
2022-07-25T10:40:25.153Z,171.80
2022-07-25T10:42:56.070Z,326.15
2022-07-25T10:45:25.896Z,269.38
2022-07-25T10:47:54.436Z,336.02
2022-07-25T10:50:40.258Z,336.95
2022-07-25T10:53:09.178Z,44.00
2022-07-25T10:55:35.973Z,231.25
2022-07-25T10:58:20.306Z,121.82
2022-07-25T11:00:46.729Z,231.70
2022-07-25T11:03:17.864Z,133.25
2022-07-25T11:05:46.543Z,248.93
2022-07-25T11:08:21.687Z,346.70
2022-07-25T11:10:53.024Z,261.85
2022-07-25T11:13:19.359Z,84.70
2022-07-25T11:15:46.648Z,348.10
2022-07-25T11:18:13.071Z,136.88
2022-07-25T11:20:39.529Z,249.02
2022-07-25T11:23:06.639Z,121.22
2022-07-25T11:25:32.988Z,203.73
2022-07-25T11:27:59.894Z,213.45
2022-07-25T11:30:28.940Z,83.97
2022-07-25T11:32:56.315Z,242.20
2022-07-25T11:35:40.915Z,32.90
2022-07-25T11:38:07.304Z,69.80
2022-07-25T11:40:34.054Z,180.60
2022-07-25T11:43:00.643Z,73.78
2022-07-25T11:45:28.660Z,257.13
2022-07-25T11:48:08.972Z,206.98
2022-07-25T11:50:37.030Z,249.82
2022-07-25T11:53:05.000Z,96.53
2022-07-25T11:55:32.499Z,84.05
2022-07-25T11:58:00.002Z,202.77
2022-07-25T12:00:26.469Z,169.73
2022-07-25T12:02:52.920Z,117.80
2022-07-25T12:05:21.056Z,270.50
2022-07-25T12:07:48.399Z,220.90
2022-07-25T12:10:18.652Z,75.53
2022-07-25T12:12:46.054Z,147.70
2022-07-25T12:15:13.954Z,147.90
2022-07-25T12:17:40.703Z,242.52
2022-07-25T12:20:14.009Z,238.05
2022-07-25T12:22:40.638Z,235.90
2022-07-25T12:25:07.631Z,381.55
2022-07-25T12:27:33.955Z,249.65
2022-07-25T12:30:00.271Z,284.40
2022-07-25T12:32:26.586Z,208.70
2022-07-25T12:34:52.969Z,122.60
2022-07-25T12:37:21.573Z,173.35
2022-07-25T12:39:48.157Z,232.80
2022-07-25T12:42:14.517Z,295.63
2022-07-25T12:44:40.871Z,314.33
2022-07-25T12:47:07.181Z,316.42
2022-07-25T12:49:33.475Z,93.68
2022-07-25T12:51:59.918Z,246.15
2022-07-25T12:54:26.259Z,200.70
2022-07-25T12:56:52.640Z,293.63
2022-07-25T12:59:19.158Z,252.40
2022-07-25T13:01:45.521Z,240.68
2022-07-25T13:04:11.912Z,232.23
2022-07-25T13:06:38.900Z,104.85
2022-07-25T13:09:05.926Z,232.02
2022-07-25T13:11:32.407Z,160.98
2022-07-25T13:13:58.701Z,159.02
2022-07-25T13:16:25.167Z,233.02
2022-07-25T13:18:51.962Z,121.55
2022-07-25T13:21:20.036Z,210.13
2022-07-25T13:23:46.824Z,184.23
2022-07-25T13:26:13.186Z,197.07
2022-07-25T13:28:39.523Z,93.68
2022-07-25T13:31:06.967Z,144.35
2022-07-25T13:33:34.019Z,266.70
2022-07-25T13:36:00.346Z,299.80
2022-07-25T13:38:26.679Z,258.63
2022-07-25T13:40:58.446Z,228.27
2022-07-25T13:43:25.207Z,99.28
2022-07-25T13:45:51.571Z,240.25
2022-07-25T13:48:33.445Z,221.05
2022-07-25T13:50:59.887Z,202.18
2022-07-25T13:53:29.980Z,192.07
2022-07-25T13:55:58.210Z,94.28
2022-07-25T13:58:24.664Z,184.38
2022-07-25T14:00:51.046Z,165.13
2022-07-25T14:03:17.357Z,172.82
2022-07-25T14:05:43.706Z,141.40
2022-07-25T14:08:10.028Z,169.57
2022-07-25T14:10:36.335Z,110.70
2022-07-25T14:13:02.907Z,140.88
2022-07-25T14:15:29.252Z,172.82
2022-07-25T14:17:55.535Z,78.80
2022-07-25T14:20:21.953Z,98.03
2022-07-25T14:22:48.257Z,168.45
2022-07-25T14:25:14.551Z,83.28
2022-07-25T14:27:40.885Z,142.93
2022-07-25T14:30:09.005Z,147.82
2022-07-25T14:32:36.009Z,32.28
2022-07-25T14:35:03.004Z,72.82
2022-07-25T14:37:31.277Z,152.90
2022-07-25T14:39:58.646Z,109.18
2022-07-25T14:42:24.972Z,148.95
2022-07-25T14:44:51.288Z,147.93
2022-07-25T14:47:17.878Z,88.80
2022-07-25T14:49:44.198Z,27.40
2022-07-25T14:52:15.031Z,44.13
2022-07-25T14:54:41.468Z,37.55
2022-07-25T14:57:08.257Z,92.68
2022-07-25T14:59:34.679Z,94.28
2022-07-25T15:02:01.348Z,125.07
2022-07-25T15:04:27.683Z,51.83
2022-07-25T15:06:54.026Z,146.55
2022-07-25T15:09:20.950Z,231.48
2022-07-25T15:11:47.561Z,96.93
2022-07-25T15:14:13.873Z,46.28
2022-07-25T15:16:40.422Z,44.25
2022-07-25T15:19:18.057Z,63.63
2022-07-25T15:21:44.916Z,104.88
2022-07-25T15:24:11.758Z,114.57
2022-07-25T15:26:38.355Z,124.10
2022-07-25T15:29:09.536Z,161.13
2022-07-25T15:31:36.821Z,99.63
2022-07-25T15:34:03.245Z,95.22
2022-07-25T15:36:29.981Z,94.38
2022-07-25T15:38:56.569Z,54.80
2022-07-25T15:41:22.935Z,78.55
2022-07-25T15:43:49.247Z,32.72
2022-07-25T15:46:16.324Z,64.80
2022-07-25T15:48:43.507Z,99.75
2022-07-25T15:51:09.995Z,73.13
2022-07-25T15:53:36.325Z,41.88
2022-07-25T15:56:02.773Z,76.03
2022-07-25T15:58:29.067Z,66.75
2022-07-25T16:00:55.509Z,31.88
2022-07-25T16:03:22.517Z,69.07
2022-07-25T16:05:48.841Z,71.53
2022-07-25T16:08:15.542Z,28.58
2022-07-25T16:10:41.922Z,79.22
2022-07-25T16:13:08.260Z,67.05
2022-07-25T16:15:34.914Z,75.28
2022-07-25T16:18:02.876Z,39.42
2022-07-25T16:20:31.230Z,61.65
2022-07-25T16:22:59.014Z,70.53
2022-07-25T16:25:26.343Z,80.57
2022-07-25T16:27:53.188Z,36.13
2022-07-25T16:30:20.133Z,43.53
2022-07-25T16:32:46.598Z,49.72
2022-07-25T16:35:12.973Z,27.70
2022-07-25T16:37:40.020Z,70.45
2022-07-25T16:40:08.090Z,74.47
2022-07-25T16:42:34.780Z,28.05
2022-07-25T16:45:01.094Z,24.48
2022-07-25T16:47:27.558Z,34.60
2022-07-25T16:49:53.845Z,98.65
2022-07-25T16:52:20.187Z,51.47
2022-07-25T16:54:46.534Z,102.90
2022-07-25T16:57:12.848Z,104.18
2022-07-25T16:59:39.164Z,67.25
2022-07-25T17:02:05.564Z,61.70
2022-07-25T17:04:32.113Z,48.53
2022-07-25T17:06:59.585Z,141.65
2022-07-25T17:09:25.884Z,93.60
2022-07-25T17:11:52.244Z,47.15
2022-07-25T17:14:18.714Z,62.67
2022-07-25T17:16:45.265Z,23.08
2022-07-25T17:19:11.705Z,53.90
2022-07-25T17:21:38.118Z,41.22
2022-07-25T17:24:04.646Z,50.20
2022-07-25T17:26:30.968Z,39.28
2022-07-25T17:28:58.372Z,45.03
2022-07-25T17:31:24.817Z,93.88
2022-07-25T17:33:51.258Z,44.25
2022-07-25T17:36:17.554Z,65.32
2022-07-25T17:38:43.899Z,47.05
2022-07-25T17:41:10.191Z,42.45
2022-07-25T17:43:36.616Z,35.13
2022-07-25T17:46:02.996Z,63.83
2022-07-25T17:48:29.461Z,78.30
2022-07-25T17:50:55.813Z,28.02
2022-07-25T17:53:22.127Z,67.68
2022-07-25T17:55:48.476Z,14.90
2022-07-25T17:58:14.784Z,132.30
2022-07-25T18:00:41.152Z,154.68
2022-07-25T18:03:07.592Z,218.55
2022-07-25T18:05:34.160Z,219.73
2022-07-25T18:08:01.744Z,39.95
2022-07-25T18:10:28.326Z,247.98
2022-07-25T18:12:54.652Z,221.93
2022-07-25T18:15:20.971Z,211.43
2022-07-25T18:17:47.962Z,176.15
2022-07-25T18:20:15.218Z,154.18
2022-07-25T18:22:41.761Z,181.38
2022-07-25T18:25:11.141Z,149.05
2022-07-25T18:27:38.169Z,182.32
2022-07-25T18:30:08.255Z,16.83
2022-07-25T18:32:35.092Z,73.50
2022-07-25T18:35:01.576Z,151.85
2022-07-25T18:37:28.001Z,155.48
2022-07-25T18:39:54.584Z,192.32
2022-07-25T18:42:22.280Z,60.67
2022-07-25T18:44:51.319Z,116.38
2022-07-25T18:47:18.363Z,163.25
2022-07-25T18:49:45.056Z,252.27
2022-07-25T18:52:11.342Z,168.35
2022-07-25T18:54:37.651Z,92.80
2022-07-25T18:57:04.544Z,134.38
2022-07-25T18:59:30.883Z,115.05
2022-07-25T19:01:57.238Z,94.53
2022-07-25T19:04:23.639Z,170.63
2022-07-25T19:06:50.026Z,44.42
2022-07-25T19:09:16.471Z,113.13
2022-07-25T19:11:42.819Z,69.78
2022-07-25T19:14:09.532Z,24.08
2022-07-25T19:16:36.351Z,142.10
2022-07-25T19:19:03.518Z,118.60
2022-07-25T19:21:29.858Z,144.05
2022-07-25T19:23:56.225Z,205.80
2022-07-25T19:26:22.651Z,87.38
2022-07-25T19:28:50.093Z,64.95
2022-07-25T19:31:17.091Z,119.85
2022-07-25T19:33:45.616Z,112.13
2022-07-25T19:36:12.692Z,68.05
2022-07-25T19:38:39.021Z,92.88
2022-07-25T19:41:05.494Z,177.65
2022-07-25T19:43:31.840Z,111.65
2022-07-25T19:45:58.384Z,75.70
2022-07-25T19:48:24.805Z,101.97
2022-07-25T19:50:51.618Z,111.57
2022-07-25T19:53:18.090Z,66.85
2022-07-25T19:55:44.498Z,238.68
2022-07-25T19:58:10.898Z,190.25
2022-07-25T20:00:37.684Z,159.27
2022-07-25T20:03:04.743Z,191.40
2022-07-25T20:05:31.340Z,109.70
2022-07-25T20:07:57.750Z,168.70
2022-07-25T20:10:24.994Z,217.27
2022-07-25T20:12:51.567Z,147.88
2022-07-25T20:15:17.912Z,217.10
2022-07-25T20:17:44.405Z,199.10
2022-07-25T20:20:11.085Z,273.55
2022-07-25T20:22:37.712Z,229.52
2022-07-25T20:25:05.631Z,144.68
2022-07-25T20:27:32.021Z,134.70
2022-07-25T20:29:59.989Z,202.55
2022-07-25T20:32:26.303Z,211.93
2022-07-25T20:34:53.071Z,288.95
2022-07-25T20:37:19.397Z,216.82
2022-07-25T20:39:45.731Z,197.57
2022-07-25T20:42:14.571Z,285.77
2022-07-25T20:44:40.984Z,237.05
2022-07-25T20:47:07.303Z,221.27
2022-07-25T20:49:33.771Z,279.50
2022-07-25T20:52:00.291Z,272.00
2022-07-25T20:54:26.621Z,232.40
2022-07-25T20:56:53.083Z,271.83
2022-07-25T20:59:19.439Z,221.63
2022-07-25T21:01:45.814Z,218.18
2022-07-25T21:04:12.202Z,237.52
2022-07-25T21:06:38.491Z,212.30
2022-07-25T21:09:05.846Z,299.73
2022-07-25T21:11:32.646Z,238.38
2022-07-25T21:13:58.976Z,311.40
2022-07-25T21:16:27.232Z,267.00
2022-07-25T21:18:55.862Z,237.88
2022-07-25T21:21:22.202Z,233.60
2022-07-25T21:23:48.622Z,236.35
2022-07-25T21:26:15.263Z,195.50
2022-07-25T21:28:41.626Z,206.38
2022-07-25T21:31:07.930Z,138.90
2022-07-25T21:33:34.297Z,241.27
2022-07-25T21:36:00.666Z,209.02
2022-07-25T21:38:29.566Z,246.48
2022-07-25T21:40:57.695Z,240.00
2022-07-25T21:43:24.548Z,223.77
2022-07-25T21:45:51.307Z,237.57
2022-07-25T21:48:21.975Z,206.93
2022-07-25T21:50:48.559Z,244.73
2022-07-25T21:53:16.788Z,185.10
2022-07-25T21:55:43.106Z,180.98
2022-07-25T21:58:09.460Z,246.38
2022-07-25T22:00:43.833Z,197.90
2022-07-25T22:03:11.777Z,208.75
2022-07-25T22:05:38.126Z,114.68
2022-07-25T22:08:04.657Z,225.05
2022-07-25T22:10:31.042Z,193.52
2022-07-25T22:12:57.364Z,157.82
2022-07-25T22:15:23.789Z,188.68
2022-07-25T22:17:50.335Z,219.90
2022-07-25T22:20:17.384Z,127.22
2022-07-25T22:22:43.698Z,143.18
2022-07-25T22:25:10.009Z,230.90
2022-07-25T22:27:36.418Z,230.43
2022-07-25T22:30:03.452Z,195.40
2022-07-25T22:32:29.759Z,205.45
2022-07-25T22:34:56.047Z,251.80
2022-07-25T22:37:22.341Z,258.75
2022-07-25T22:39:48.667Z,238.30
2022-07-25T22:42:16.092Z,208.80
2022-07-25T22:44:42.765Z,218.98
2022-07-25T22:47:09.052Z,226.98
2022-07-25T22:49:35.410Z,194.25
2022-07-25T22:52:01.783Z,206.43
2022-07-25T22:54:28.092Z,208.07
2022-07-25T22:56:54.405Z,214.20
2022-07-25T22:59:20.751Z,211.52
2022-07-25T23:01:47.184Z,208.05
2022-07-25T23:04:13.660Z,210.02
2022-07-25T23:06:40.051Z,141.40
2022-07-25T23:09:06.586Z,163.35
2022-07-25T23:11:33.116Z,213.95
2022-07-25T23:13:59.523Z,194.98
2022-07-25T23:16:27.594Z,255.63
2022-07-25T23:18:54.536Z,243.77
2022-07-25T23:21:21.015Z,227.73
2022-07-25T23:23:47.452Z,208.70
2022-07-25T23:26:13.854Z,173.07
2022-07-25T23:28:40.304Z,96.18
2022-07-25T23:31:06.756Z,231.68
2022-07-25T23:33:33.190Z,160.00
2022-07-25T23:35:59.511Z,245.05
2022-07-25T23:38:25.807Z,106.32
2022-07-25T23:40:54.084Z,229.43
2022-07-25T23:43:34.816Z,230.30
2022-07-25T23:46:07.451Z,234.93
2022-07-25T23:48:34.504Z,184.18
2022-07-25T23:51:01.121Z,123.43
2022-07-25T23:53:27.440Z,166.75
2022-07-25T23:55:53.983Z,259.20
2022-07-25T23:58:20.314Z,170.70
